Latest Weather Observations for Walpole North

IDW60801

Issued at 7:05 am WST Sunday 26 October 2014 (issued every 30 minutes, with the page automatically refreshed every 10 minutes)

About weather observations | Map of weather stations | Latest weather observations for WA | Other Formats
Station Details ID: 009998 Name: NORTH WALPOLE Lat: -34.95 Lon: 116.72 Height: 73.0 m
Data from the previous 72 hours. | See also: Recent months at Walpole North
Date/Time
WST
Temp
°C
App
Temp
°C
Dew
Point
Rel
Hum
%
Delta-T
°C
Wind Press
QNH
hPa
Press
MSL
hPa
Rain
since 9 am
mm
Dir
 
Spd
km/h
Gust
km/h
Spd
kts
Gust
kts
26/07:00am 15.1 11.9 10.1 72 2.6 WSW 17 28 9 15 1018.6 1018.6 5.0
26/06:30am 14.5 11.8 9.1 70 2.8 WSW 13 20 7 11 1018.2 1018.2 5.0
26/06:00am 14.3 11.0 9.5 73 2.5 WSW 17 39 9 21 1017.6 1017.6 5.0
26/05:30am 14.0 10.7 9.6 75 2.3 WSW 17 26 9 14 1017.3 1017.3 5.0
26/05:00am 13.8 10.4 10.6 81 1.7 WSW 19 32 10 17 1016.7 1016.7 5.0
26/04:30am 13.6 9.5 11.5 87 1.1 WSW 24 39 13 21 1016.5 1016.5 5.0
26/04:00am 13.4 10.5 12.3 93 0.6 W 19 30 10 16 1016.1 1016.1 5.0
26/03:30am 13.5 12.0 13.0 97 0.3 W 13 26 7 14 1016.1 1016.1 5.0
26/03:00am 13.5 12.4 13.0 97 0.3 W 11 17 6 9 1015.7 1015.7 4.8
26/02:30am 13.5 11.6 12.9 96 0.3 W 15 30 8 16 1015.5 1015.5 4.8
26/02:00am 13.6 10.3 12.7 94 0.5 W 22 39 12 21 1015.7 1015.7 4.0
26/01:30am 13.3 10.2 12.2 93 0.6 NW 20 26 11 14 1015.3 1015.3 4.0
26/01:00am 13.5 11.7 12.1 91 0.8 WNW 13 19 7 10 1015.4 1015.4 4.0
26/12:30am 13.5 9.9 11.9 90 0.9 WNW 22 35 12 19 1015.5 1015.5 4.0
26/12:00am 13.6 10.8 11.5 87 1.1 NW 17 26 9 14 1015.5 1015.5 4.0
 
Date/Time
WST
Temp
°C
App
Temp
°C
Dew
Point
Rel
Hum
%
Delta-T
°C
Wind Press
QNH
hPa
Press
MSL
hPa
Rain
since 9 am
mm
Dir
 
Spd
km/h
Gust
km/h
Spd
kts
Gust
kts
25/11:30pm 13.8 10.7 11.7 87 1.1 NW 19 28 10 15 1015.7 1015.7 4.0
25/11:00pm 13.6 10.3 11.5 87 1.1 WNW 20 30 11 16 1015.9 1015.9 4.0
25/10:30pm 13.7 10.3 11.4 86 1.2 WNW 20 28 11 15 1015.9 1015.9 4.0
25/10:00pm 13.7 10.4 11.0 84 1.4 WNW 19 28 10 15 1015.9 1015.9 4.0
25/09:30pm 14.4 10.4 10.4 77 2.1 NW 22 33 12 18 1015.9 1015.9 4.0
25/09:00pm 14.4 12.0 10.0 75 2.3 W 13 20 7 11 1016.4 1016.4 4.0
25/08:30pm 14.7 11.2 10.3 75 2.3 WNW 19 26 10 14 1016.1 1016.1 4.0
25/08:00pm 14.4 11.0 10.4 77 2.1 WNW 19 32 10 17 1016.0 1016.0 4.0
25/07:30pm 14.8 11.8 10.8 77 2.1 WNW 17 32 9 17 1015.7 1015.7 4.0
25/07:00pm 14.7 11.6 11.7 82 1.6 WNW 19 24 10 13 1015.2 1015.2 4.0
25/06:30pm 14.7 11.6 11.7 82 1.6 WNW 19 35 10 19 1015.0 1015.0 3.8
25/06:00pm 15.7 12.0 10.2 70 2.9 WNW 20 43 11 23 1014.8 1014.8 3.8
25/05:30pm 16.2 12.5 10.1 67 3.2 WNW 20 32 11 17 1014.6 1014.6 3.8
25/05:00pm 17.1 12.8 10.7 66 3.4 W 24 46 13 25 1014.5 1014.5 3.8
25/04:41pm 17.5 12.3 10.1 62 3.9 W 28 52 15 28 1014.4 1014.4 3.8
25/04:30pm 17.0 12.6 10.4 65 3.5 W 24 41 13 22 1014.2 1014.2 3.8
25/04:00pm 18.0 13.6 11.8 67 3.4 W 26 39 14 21 1013.8 1013.8 3.8
25/03:30pm 18.2 13.0 11.7 66 3.6 W 30 48 16 26 1013.8 1013.8 3.6
25/03:04pm 18.5 14.0 12.7 69 3.3 W 28 46 15 25 1013.5 1013.5 3.6
25/03:00pm 18.2 14.5 12.6 70 3.1 W 24 39 13 21 1013.5 1013.5 3.6
25/02:31pm 17.6 13.1 12.7 73 2.7 W 28 48 15 26 1013.4 1013.4 3.6
25/02:30pm 17.5 13.4 12.6 73 2.7 W 26 48 14 26 1013.5 1013.5 3.6
25/02:09pm 18.2 14.3 14.3 78 2.2 W 28 46 15 25 1013.4 1013.4 3.6
25/02:00pm 17.8 14.3 14.5 81 1.9 W 26 43 14 23 1013.4 1013.4 3.6
25/01:30pm 17.0 14.7 15.7 92 0.8 W 22 37 12 20 1013.6 1013.6 3.6
25/01:00pm 17.3 16.5 17.0 98 0.2 W 17 28 9 15 1013.5 1013.5 3.6
25/12:30pm 17.3 16.3 16.7 96 0.4 W 17 26 9 14 1013.6 1013.6 2.8
25/12:00pm 16.7 14.3 14.5 87 1.3 WNW 20 35 11 19 1013.5 1013.5 2.0
25/11:30am 20.1 17.0 14.5 70 3.3 WNW 24 39 13 21 1013.0 1012.9 0.0
25/11:00am 20.4 16.5 14.5 69 3.5 WNW 28 46 15 25 1013.2 1013.1 0.0
25/10:30am 19.4 16.0 13.8 70 3.2 WNW 24 35 13 19 1013.7 1013.7 0.0
25/10:00am 19.4 15.1 13.1 67 3.6 WNW 28 33 15 18 1013.6 1013.6 0.0
25/09:30am 18.2 15.4 13.3 73 2.8 W 20 30 11 16 1013.8 1013.8 0.0
25/09:00am 17.6 14.5 13.3 76 2.4 WNW 22 37 12 20 1013.8 1013.8 0.0
25/08:30am 17.5 15.0 14.2 81 1.9 WNW 20 30 11 16 1013.9 1013.9 0.0
25/08:00am 17.3 14.1 14.2 82 1.8 NW 24 33 13 18 1013.8 1013.8 0.0
25/07:30am 16.3 13.6 13.0 81 1.8 NW 19 26 10 14 1013.8 1013.8 0.0
25/07:00am 15.6 13.4 13.3 86 1.3 NNW 17 26 9 14 1013.8 1013.8 0.0
25/06:30am 14.9 13.5 13.3 90 0.9 NNW 13 17 7 9 1013.8 1013.8 0.0
25/06:00am 14.5 14.2 13.4 93 0.6 N 7 13 4 7 1013.6 1013.6 0.0
25/05:30am 14.3 14.1 13.7 96 0.3 N 7 11 4 6 1013.3 1013.3 0.0
25/05:00am 14.4 14.4 14.1 98 0.2 N 7 11 4 6 1013.2 1013.1 0.0
25/04:30am 14.3 14.3 14.1 99 0.1 N 7 13 4 7 1013.2 1013.1 0.0
25/04:00am 14.1 13.3 13.9 99 0.1 N 11 13 6 7 1013.2 1013.1 0.0
25/03:30am 14.2 13.8 14.0 99 0.1 N 9 15 5 8 1013.0 1012.9 0.0
25/03:00am 12.6 12.6 12.4 99 0.1 N 4 7 2 4 1013.2 1013.1 0.0
25/02:30am 12.9 13.7 12.7 99 0.1 CALM 0 0 0 0 1013.4 1013.4 0.0
25/02:00am 12.4 13.1 12.2 99 0.1 CALM 0 0 0 0 1013.2 1013.1 0.0
25/01:30am 12.8 13.6 12.6 99 0.1 CALM 0 0 0 0 1013.3 1013.3 0.0
25/01:00am 13.1 14.0 12.9 99 0.1 CALM 0 0 0 0 1013.6 1013.6 0.0
25/12:30am 12.7 13.5 12.5 99 0.1 CALM 0 0 0 0 1013.8 1013.8 0.0
25/12:00am 12.8 12.9 12.6 99 0.1 ENE 4 9 2 5 1013.9 1013.9 0.0
 
Date/Time
WST
Temp
°C
App
Temp
°C
Dew
Point
Rel
Hum
%
Delta-T
°C
Wind Press
QNH
hPa
Press
MSL
hPa
Rain
since 9 am
mm
Dir
 
Spd
km/h
Gust
km/h
Spd
kts
Gust
kts
24/11:30pm 12.9 13.7 12.7 99 0.1 CALM 0 0 0 0 1014.2 1014.2 0.0
24/11:00pm 13.5 13.8 13.3 99 0.1 NNE 4 9 2 5 1014.1 1014.1 0.0
24/10:30pm 13.7 14.4 13.5 99 0.1 NE 2 7 1 4 1014.5 1014.5 0.0
24/10:00pm 14.2 14.3 13.9 98 0.2 NE 6 9 3 5 1014.8 1014.8 0.0
24/09:30pm 14.0 13.8 13.5 97 0.3 NNE 7 11 4 6 1015.0 1015.0 0.0
24/09:00pm 13.4 14.2 12.6 95 0.4 CALM 0 0 0 0 1015.3 1015.3 0.0
24/08:30pm 14.0 14.9 12.9 93 0.6 CALM 0 0 0 0 1015.1 1015.1 0.0
24/08:00pm 14.5 15.6 13.4 93 0.6 CALM 0 0 0 0 1015.2 1015.2 0.0
24/07:30pm 14.7 15.7 13.2 91 0.8 CALM 0 7 0 4 1015.4 1015.4 0.0
24/07:00pm 15.0 16.0 13.2 89 1.0 CALM 0 0 0 0 1015.2 1015.2 0.0
24/06:30pm 15.4 16.1 13.4 88 1.1 ENE 2 9 1 5 1015.1 1015.1 0.0
24/06:00pm 16.0 15.8 13.5 85 1.4 ESE 7 9 4 5 1015.2 1015.2 0.0
24/05:30pm 16.7 16.2 13.8 83 1.6 SE 9 13 5 7 1015.1 1015.1 0.0
24/05:00pm 16.8 16.7 13.9 83 1.6 S 7 13 4 7 1015.2 1015.2 0.0
24/04:30pm 17.1 17.3 14.2 83 1.7 S 6 15 3 8 1015.1 1015.1 0.0
24/04:00pm 17.1 16.7 14.2 83 1.7 S 9 20 5 11 1014.9 1014.9 0.0
24/03:30pm 18.4 18.1 14.5 78 2.3 S 9 19 5 10 1014.5 1014.5 0.0
24/03:00pm 19.5 18.3 15.0 75 2.6 SSW 15 24 8 13 1014.6 1014.6 0.0
24/02:30pm 19.9 20.3 13.8 68 3.5 SSW 4 11 2 6 1014.8 1014.8 0.0
24/02:00pm 19.2 19.4 14.7 75 2.6 S 7 15 4 8 1015.3 1015.3 0.0
24/01:30pm 18.9 18.1 12.9 68 3.4 WSW 9 15 5 8 1015.8 1015.8 0.0
24/01:00pm 19.0 18.1 12.7 67 3.5 NW 9 13 5 7 1016.0 1016.0 0.0
24/12:30pm 18.8 17.6 12.8 68 3.4 N 11 17 6 9 1016.3 1016.3 0.0
24/12:00pm 18.4 17.6 13.0 71 3.0 N 9 15 5 8 1016.6 1016.6 0.0
24/11:30am 17.1 16.5 12.4 74 2.6 ESE 7 11 4 6 1017.1 1017.1 0.0
24/11:00am 17.5 17.2 12.8 74 2.6 NNE 6 11 3 6 1017.7 1017.7 0.0
24/10:30am 16.7 15.6 11.8 73 2.7 ENE 9 15 5 8 1017.8 1017.8 0.0
24/10:00am 16.2 15.4 11.8 75 2.4 NE 7 11 4 6 1018.2 1018.2 0.0
24/09:30am 15.8 15.2 12.4 80 1.9 NNE 7 11 4 6 1018.1 1018.1 0.0
24/09:00am 15.9 15.7 13.7 87 1.2 E 7 13 4 7 1018.0 1018.0 0.6
24/08:30am 15.0 16.2 13.9 93 0.6 CALM 0 0 0 0 1018.0 1018.0 0.6
24/08:00am 14.4 15.6 13.9 97 0.3 CALM 0 0 0 0 1017.9 1017.9 0.6
24/07:30am 13.8 14.9 13.6 99 0.1 CALM 0 0 0 0 1017.9 1017.9 0.6
24/07:00am 12.9 13.7 12.7 99 0.1 CALM 0 0 0 0 1017.8 1017.8 0.6
24/06:30am 12.1 12.7 11.9 99 0.1 CALM 0 0 0 0 1018.0 1018.0 0.6
24/06:00am 11.9 12.4 11.7 99 0.1 CALM 0 0 0 0 1017.8 1017.8 0.6
24/05:30am 12.2 12.8 12.0 99 0.1 CALM 0 0 0 0 1017.7 1017.7 0.6
24/05:00am 12.4 13.1 12.1 98 0.2 CALM 0 0 0 0 1017.5 1017.5 0.6
24/04:30am 12.5 13.2 12.2 98 0.2 CALM 0 0 0 0 1017.6 1017.6 0.6
24/04:00am 12.6 13.3 12.1 97 0.3 CALM 0 0 0 0 1017.7 1017.7 0.6
24/03:30am 12.7 13.4 12.2 97 0.3 CALM 0 0 0 0 1018.0 1018.0 0.6
24/03:00am 12.6 13.3 12.1 97 0.3 CALM 0 0 0 0 1018.1 1018.1 0.6
24/02:30am 12.6 13.3 12.1 97 0.3 CALM 0 0 0 0 1018.0 1018.0 0.6
24/02:00am 12.8 13.5 12.3 97 0.3 CALM 0 0 0 0 1017.8 1017.8 0.6
24/01:30am 12.8 13.5 12.3 97 0.3 CALM 0 0 0 0 1018.0 1018.0 0.6
24/01:00am 12.8 13.5 12.3 97 0.3 CALM 0 0 0 0 1018.1 1018.1 0.6
24/12:30am 13.2 14.0 12.7 97 0.3 CALM 0 0 0 0 1018.2 1018.2 0.6
24/12:00am 13.2 14.0 12.7 97 0.3 CALM 0 0 0 0 1018.3 1018.3 0.6
 
Date/Time
WST
Temp
°C
App
Temp
°C
Dew
Point
Rel
Hum
%
Delta-T
°C
Wind Press
QNH
hPa
Press
MSL
hPa
Rain
since 9 am
mm
Dir
 
Spd
km/h
Gust
km/h
Spd
kts
Gust
kts
23/11:30pm 13.1 13.5 12.6 97 0.3 SW 2 7 1 4 1018.3 1018.3 0.6
23/11:00pm 13.3 14.2 12.8 97 0.3 CALM 0 0 0 0 1018.1 1018.1 0.6
23/10:30pm 13.3 13.4 12.8 97 0.3 WSW 4 9 2 5 1018.2 1018.2 0.6
23/10:00pm 13.5 14.4 13.0 97 0.3 CALM 0 6 0 3 1018.2 1018.2 0.6
23/09:30pm 13.7 13.5 13.1 96 0.3 SW 6 9 3 5 1018.2 1018.2 0.6
23/09:00pm 13.7 14.2 12.8 94 0.5 SW 2 9 1 5 1018.1 1018.1 0.4
23/08:30pm 13.8 12.8 12.4 91 0.8 SSW 9 11 5 6 1018.1 1018.1 0.4
23/08:00pm 14.1 13.0 12.1 88 1.1 S 9 19 5 10 1017.8 1017.8 0.4
23/07:30pm 14.0 14.5 11.5 85 1.3 CALM 0 2 0 1 1017.4 1017.4 0.4
23/07:00pm 14.6 14.8 11.7 83 1.6 SSW 2 9 1 5 1017.3 1017.3 0.4
23/06:30pm 14.9 14.6 11.5 80 1.8 SSW 4 7 2 4 1016.9 1016.9 0.4
23/06:00pm 15.1 14.2 11.5 79 1.9 SSW 7 15 4 8 1016.6 1016.6 0.4
23/05:30pm 15.4 13.4 11.6 78 2.1 SW 13 26 7 14 1016.5 1016.5 0.4
23/05:00pm 16.1 13.7 11.5 74 2.5 SW 15 26 8 14 1016.2 1016.2 0.4
23/04:30pm 15.5 13.4 11.1 75 2.4 SW 13 22 7 12 1016.0 1016.0 0.4
23/04:00pm 16.4 13.7 11.6 73 2.6 SW 17 28 9 15 1015.7 1015.7 0.4
23/03:30pm 16.0 13.1 12.2 78 2.1 SW 19 30 10 16 1015.4 1015.4 0.4
23/03:00pm 15.7 12.7 12.5 81 1.8 WSW 20 32 11 17 1015.0 1015.0 0.4
23/02:30pm 15.9 11.8 12.6 81 1.8 WSW 26 41 14 22 1014.7 1014.7 0.4
23/02:00pm 16.2 13.4 13.1 82 1.7 SW 20 35 11 19 1014.2 1014.2 0.4
23/01:30pm 16.1 12.4 13.9 87 1.2 SW 26 35 14 19 1014.1 1014.1 0.4
23/01:00pm 15.6 12.9 14.5 93 0.6 WSW 22 32 12 17 1013.7 1013.7 0.4
23/12:30pm 15.4 13.0 14.3 93 0.6 WSW 20 32 11 17 1013.3 1013.3 0.2
23/12:00pm 15.8 12.1 13.8 88 1.1 WSW 26 44 14 24 1012.9 1012.8 0.0
23/11:30am 16.6 13.8 14.4 87 1.3 WSW 22 39 12 21 1012.5 1012.4 0.0
23/11:00am 16.4 12.4 14.1 86 1.3 WSW 28 43 15 23 1012.4 1012.3 0.0
23/10:38am 16.7 12.9 14.7 88 1.2 WSW 28 48 15 26 1012.1 1012.0 0.0
23/10:30am 17.0 13.4 15.3 90 1.0 W 28 43 15 23 1012.0 1011.9 0.0
23/10:00am 16.4 14.0 15.4 94 0.6 WSW 22 35 12 19 1011.8 1011.7 0.0
23/09:30am 16.2 13.9 15.6 96 0.4 W 22 35 12 19 1011.3 1011.2 0.0
23/09:19am 16.2 12.7 15.4 95 0.5 W 28 48 15 26 1011.1 1011.0 0.0
23/09:00am 16.5 14.9 15.9 96 0.4 W 19 30 10 16 1010.9 1010.8 11.6
23/08:30am 16.3 14.2 15.2 93 0.6 WNW 20 30 11 16 1010.5 1010.4 11.4
23/08:00am 16.4 14.2 14.8 90 0.9 WNW 20 30 11 16 1010.2 1010.1 11.0
23/07:30am 16.4 13.3 14.6 89 1.0 WNW 24 39 13 21 1009.8 1009.7 11.0

Other Formats:

Comma delimited format used in spreadsheet applications
http://www.bom.gov.au/fwo/IDW60801/IDW60801.95647.axf

JavaScript Object Notation format (JSON) in row-major order
http://www.bom.gov.au/fwo/IDW60801/IDW60801.95647.json